Time;durP1;ratioP1;P1;durP2;ratioP2;P2;SDS_P1;SDS_P2;PMS_P1;PMS_P2;Temp;Humidity;BMP_temperature;BMP_pressure;BME280_temperature;BME280_humidity;BME280_pressure;Samples;Min_cycle;Max_cycle;Signal;HPM_P1;HPM_P2
2023/10/26 00:01:09;;;;;;;0.47;0.37;;;10.10;99.90;;;;;;5075367;28;20456;-83
2023/10/26 00:03:35;;;;;;;0.30;0.30;;;10.20;99.90;;;;;;5075373;28;20465;-83
2023/10/26 00:06:02;;;;;;;2.10;0.77;;;10.20;99.90;;;;;;5075395;28;20468;-83
2023/10/26 00:08:29;;;;;;;0.97;0.50;;;10.30;99.90;;;;;;5074419;28;20926;-83
2023/10/26 00:10:56;;;;;;;0.30;0.30;;;10.30;99.90;;;;;;5075298;28;20453;-82
2023/10/26 00:13:22;;;;;;;0.40;0.30;;;10.30;99.90;;;;;;5075293;28;20472;-83
2023/10/26 00:15:51;;;;;;;0.37;0.37;;;10.30;99.90;;;;;;5075181;28;20445;-82
2023/10/26 00:18:17;;;;;;;0.40;0.30;;;10.30;99.90;;;;;;5075084;28;20453;-82
2023/10/26 00:20:45;;;;;;;0.40;0.40;;;10.30;99.90;;;;;;5075131;28;20445;-83
2023/10/26 00:23:12;;;;;;;0.40;0.40;;;10.20;99.90;;;;;;5074682;28;20476;-83
2023/10/26 00:25:38;;;;;;;0.50;0.30;;;10.10;99.90;;;;;;5074977;28;20471;-83
2023/10/26 00:28:05;;;;;;;0.50;0.30;;;10.20;99.90;;;;;;5075034;28;20537;-83
2023/10/26 00:30:32;;;;;;;0.40;0.30;;;10.20;99.90;;;;;;5074871;28;20448;-82
2023/10/26 00:33:00;;;;;;;0.40;0.37;;;10.20;99.90;;;;;;5074775;28;20973;-82
2023/10/26 00:35:27;;;;;;;0.30;0.30;;;10.20;99.90;;;;;;5074797;28;20799;-82
2023/10/26 00:37:54;;;;;;;0.30;0.30;;;10.10;99.90;;;;;;5074473;28;20445;-83
2023/10/26 00:40:20;;;;;;;0.70;0.60;;;10.10;99.90;;;;;;5074677;28;20480;-82
2023/10/26 00:42:47;;;;;;;3.90;0.40;;;10.10;99.90;;;;;;5074599;28;20441;-82
2023/10/26 00:45:14;;;;;;;0.40;0.40;;;10.20;99.90;;;;;;5074612;28;20456;-82
2023/10/26 00:47:41;;;;;;;0.30;0.30;;;10.10;99.90;;;;;;5074279;28;20460;-83
2023/10/26 00:50:10;;;;;;;0.37;0.30;;;10.10;99.90;;;;;;5074244;28;20444;-82
2023/10/26 00:52:38;;;;;;;0.40;0.30;;;10.10;99.90;;;;;;5074408;28;20437;-82
2023/10/26 00:55:07;;;;;;;1.43;0.40;;;10.00;99.90;;;;;;5074393;28;20453;-82
2023/10/26 00:57:34;;;;;;;0.67;0.30;;;10.00;99.90;;;;;;5074363;28;20437;-83
2023/10/26 01:00:02;;;;;;;0.50;0.37;;;10.00;99.90;;;;;;5074301;28;20485;-82
2023/10/26 01:02:30;;;;;;;0.70;0.30;;;10.00;99.90;;;;;;5074265;28;20452;-82
2023/10/26 01:04:56;;;;;;;0.30;0.30;;;10.00;99.90;;;;;;5074122;28;20473;-83
2023/10/26 01:07:25;;;;;;;0.50;0.40;;;10.00;99.90;;;;;;5074541;28;20441;-83
2023/10/26 01:09:51;;;;;;;3.50;0.47;;;10.00;99.90;;;;;;5074111;28;20456;-83
2023/10/26 01:12:18;;;;;;;0.40;0.30;;;10.00;99.90;;;;;;5074078;28;20452;-83
2023/10/26 01:14:45;;;;;;;0.50;0.50;;;9.90;99.90;;;;;;5073961;28;20469;-83
2023/10/26 01:17:12;;;;;;;0.67;0.57;;;9.90;99.90;;;;;;5074018;28;20445;-83
2023/10/26 01:19:41;;;;;;;0.50;0.50;;;9.90;99.90;;;;;;5073800;28;20487;-83
2023/10/26 01:22:09;;;;;;;0.50;0.40;;;9.90;99.90;;;;;;5072838;28;20425;-83
2023/10/26 01:24:36;;;;;;;0.33;0.30;;;9.90;99.90;;;;;;5073802;28;20469;-83
2023/10/26 01:27:04;;;;;;;0.50;0.40;;;9.90;99.90;;;;;;5073830;28;20447;-83
2023/10/26 01:29:31;;;;;;;0.33;0.30;;;9.90;99.90;;;;;;5073764;28;20445;-83
2023/10/26 01:31:58;;;;;;;0.30;0.30;;;9.80;99.90;;;;;;5073757;28;20451;-83
2023/10/26 01:34:25;;;;;;;0.37;0.37;;;9.80;99.90;;;;;;5073654;28;20468;-83
2023/10/26 01:36:51;;;;;;;0.30;0.30;;;9.80;99.90;;;;;;5073393;28;20437;-84
2023/10/26 01:39:20;;;;;;;0.30;0.30;;;9.70;99.90;;;;;;5073601;28;20477;-83
2023/10/26 01:41:47;;;;;;;1.43;0.40;;;9.70;99.90;;;;;;5073635;28;20445;-83
2023/10/26 01:44:14;;;;;;;0.30;0.30;;;9.80;99.90;;;;;;5073523;28;20556;-83
2023/10/26 01:46:41;;;;;;;0.50;0.50;;;9.70;99.90;;;;;;5073541;28;20457;-83
2023/10/26 01:49:08;;;;;;;0.40;0.30;;;9.70;99.90;;;;;;5073200;28;20448;-83
2023/10/26 01:51:34;;;;;;;1.07;0.70;;;9.70;99.90;;;;;;5073007;28;20820;-83
2023/10/26 01:54:01;;;;;;;3.67;0.33;;;9.70;99.90;;;;;;5073165;28;20472;-83
2023/10/26 01:56:30;;;;;;;0.40;0.30;;;9.60;99.90;;;;;;5073463;28;20452;-83
2023/10/26 01:58:57;;;;;;;0.30;0.30;;;9.70;99.90;;;;;;5073012;28;20499;-84
2023/10/26 02:01:25;;;;;;;0.30;0.30;;;9.60;99.90;;;;;;5073386;28;20445;-83
2023/10/26 02:03:51;;;;;;;0.63;0.30;;;9.60;99.90;;;;;;5073021;28;20990;-83
2023/10/26 02:06:18;;;;;;;0.40;0.40;;;9.60;99.90;;;;;;5073324;28;20452;-83
2023/10/26 02:08:45;;;;;;;0.40;0.40;;;9.60;99.90;;;;;;5073034;28;20808;-83
2023/10/26 02:11:12;;;;;;;0.40;0.30;;;9.60;99.90;;;;;;5073115;28;20455;-82
2023/10/26 02:13:40;;;;;;;0.30;0.30;;;9.60;99.90;;;;;;5073176;28;20476;-83
2023/10/26 02:16:07;;;;;;;0.40;0.40;;;9.60;99.90;;;;;;5072968;28;20445;-83
2023/10/26 02:18:34;;;;;;;0.40;0.40;;;9.60;99.90;;;;;;5072946;28;20437;-83
2023/10/26 02:21:01;;;;;;;0.30;0.30;;;9.60;99.90;;;;;;5073071;28;20489;-83
2023/10/26 02:23:28;;;;;;;0.50;0.50;;;9.60;99.90;;;;;;5074072;28;20463;-83
2023/10/26 02:25:55;;;;;;;0.60;0.60;;;9.50;99.90;;;;;;5073390;28;20934;-83
2023/10/26 02:28:23;;;;;;;0.33;0.33;;;9.50;99.90;;;;;;5073094;28;20441;-83
2023/10/26 02:30:51;;;;;;;0.30;0.30;;;9.50;99.90;;;;;;5073101;28;20860;-84
2023/10/26 02:33:18;;;;;;;0.30;0.30;;;9.40;99.90;;;;;;5076204;28;20534;-84
2023/10/26 02:35:45;;;;;;;0.40;0.40;;;9.40;99.90;;;;;;5077089;28;20498;-83
2023/10/26 02:38:12;;;;;;;0.30;0.30;;;9.40;99.90;;;;;;5076761;28;20452;-83
2023/10/26 02:40:39;;;;;;;0.30;0.30;;;9.40;99.90;;;;;;5076970;28;20492;-83
2023/10/26 02:43:06;;;;;;;0.97;0.50;;;9.40;99.90;;;;;;5076917;28;20478;-83
2023/10/26 02:45:32;;;;;;;0.30;0.30;;;9.40;99.90;;;;;;5076710;28;20792;-83
2023/10/26 02:48:02;;;;;;;0.30;0.30;;;9.40;99.90;;;;;;5076756;28;20448;-83
2023/10/26 02:50:29;;;;;;;0.30;0.20;;;9.40;99.90;;;;;;5076338;28;20567;-83
2023/10/26 02:52:56;;;;;;;0.30;0.30;;;9.50;99.90;;;;;;5076743;28;20468;-84
2023/10/26 02:55:24;;;;;;;0.53;0.40;;;9.50;99.90;;;;;;5076440;28;20972;-83
2023/10/26 02:57:51;;;;;;;0.30;0.30;;;9.50;99.90;;;;;;5076372;28;20459;-83
2023/10/26 03:00:18;;;;;;;0.30;0.30;;;9.40;99.90;;;;;;5076252;28;20476;-83
2023/10/26 03:02:46;;;;;;;0.40;0.40;;;9.50;99.90;;;;;;5076546;28;20436;-83
2023/10/26 03:05:14;;;;;;;0.30;0.30;;;9.40;99.90;;;;;;5076171;28;20949;-83
2023/10/26 03:07:41;;;;;;;0.40;0.37;;;9.50;99.90;;;;;;5076240;28;20425;-83
2023/10/26 03:10:08;;;;;;;0.40;0.37;;;9.40;99.90;;;;;;5076440;28;20441;-83
2023/10/26 03:12:35;;;;;;;0.33;0.33;;;9.40;99.90;;;;;;5076333;28;20448;-83
2023/10/26 03:15:02;;;;;;;0.40;0.40;;;9.40;99.90;;;;;;5076374;28;20448;-83
2023/10/26 03:17:29;;;;;;;1.17;0.83;;;9.50;99.90;;;;;;5076281;28;20445;-83
2023/10/26 03:19:55;;;;;;;0.30;0.30;;;9.50;99.90;;;;;;5075969;28;20476;-83
2023/10/26 03:22:23;;;;;;;0.30;0.30;;;9.50;99.90;;;;;;5075900;28;20444;-83
2023/10/26 03:24:51;;;;;;;1.10;0.50;;;9.50;99.90;;;;;;5076181;28;20467;-83
2023/10/26 03:27:18;;;;;;;0.60;0.30;;;9.50;99.90;;;;;;5076140;28;20456;-83
2023/10/26 03:29:44;;;;;;;0.60;0.33;;;9.50;99.90;;;;;;5076048;28;20437;-83
2023/10/26 03:32:11;;;;;;;0.40;0.30;;;9.50;99.90;;;;;;5075922;28;20456;-83
2023/10/26 03:34:38;;;;;;;0.30;0.27;;;9.50;99.90;;;;;;5075574;28;21048;-83
2023/10/26 03:37:05;;;;;;;0.30;0.27;;;9.50;99.90;;;;;;5075659;28;20447;-83
2023/10/26 03:39:35;;;;;;;0.30;0.30;;;9.50;99.90;;;;;;5075865;28;20480;-83
2023/10/26 03:42:02;;;;;;;0.40;0.30;;;9.50;99.90;;;;;;5075929;28;20437;-83
2023/10/26 03:44:29;;;;;;;0.30;0.30;;;9.40;99.90;;;;;;5074345;28;20478;-83
2023/10/26 03:46:55;;;;;;;0.30;0.30;;;9.40;99.90;;;;;;5075609;28;20502;-83
2023/10/26 03:49:22;;;;;;;0.60;0.30;;;9.40;99.90;;;;;;5075672;28;20452;-83
2023/10/26 03:51:49;;;;;;;0.40;0.40;;;9.40;99.90;;;;;;5075251;28;20484;-83
2023/10/26 03:54:16;;;;;;;0.30;0.30;;;9.40;99.90;;;;;;5075325;28;20465;-83
2023/10/26 03:56:44;;;;;;;0.40;0.30;;;9.40;99.90;;;;;;5075518;28;20453;-83
2023/10/26 03:59:11;;;;;;;1.57;0.33;;;9.40;99.90;;;;;;5075612;28;20456;-83
2023/10/26 04:01:38;;;;;;;0.30;0.30;;;9.40;99.90;;;;;;5075209;28;20487;-83
2023/10/26 04:04:05;;;;;;;0.60;0.30;;;9.40;99.90;;;;;;5075418;28;20469;-84
2023/10/26 04:06:32;;;;;;;0.70;0.43;;;9.40;99.90;;;;;;5075144;28;20467;-83
2023/10/26 04:08:59;;;;;;;0.40;0.30;;;9.40;99.90;;;;;;5075173;28;20441;-83
2023/10/26 04:11:26;;;;;;;0.30;0.30;;;9.50;99.90;;;;;;5075371;28;20437;-83
2023/10/26 04:13:57;;;;;;;0.40;0.30;;;9.40;99.90;;;;;;5075247;28;20468;-83
2023/10/26 04:16:25;;;;;;;0.40;0.30;;;9.30;99.90;;;;;;5075285;28;20437;-83
2023/10/26 04:18:51;;;;;;;0.40;0.30;;;9.40;99.90;;;;;;5074845;28;20456;-83
2023/10/26 04:21:18;;;;;;;0.30;0.30;;;9.50;99.90;;;;;;5075034;28;20872;-83
2023/10/26 04:23:45;;;;;;;0.30;0.30;;;9.40;99.90;;;;;;5075003;28;20472;-83
2023/10/26 04:26:12;;;;;;;0.40;0.40;;;9.40;99.90;;;;;;5074801;28;20429;-83
2023/10/26 04:28:39;;;;;;;0.30;0.30;;;9.40;99.90;;;;;;5074630;28;20969;-83
2023/10/26 04:31:07;;;;;;;0.60;0.30;;;9.50;99.90;;;;;;5074929;28;20460;-83
2023/10/26 04:33:34;;;;;;;0.40;0.40;;;9.40;99.90;;;;;;5074897;28;20467;-83
2023/10/26 04:36:03;;;;;;;0.30;0.30;;;9.40;99.90;;;;;;5074518;28;20912;-83
2023/10/26 04:38:30;;;;;;;0.40;0.30;;;9.40;99.90;;;;;;5075236;28;20910;-83
2023/10/26 04:40:59;;;;;;;0.30;0.30;;;9.50;99.90;;;;;;5074725;28;20488;-83
2023/10/26 04:43:25;;;;;;;0.30;0.30;;;9.50;99.90;;;;;;5074616;28;20537;-83
2023/10/26 04:45:52;;;;;;;0.73;0.40;;;9.50;99.90;;;;;;5074648;28;20441;-83
2023/10/26 04:48:20;;;;;;;0.40;0.40;;;9.50;99.90;;;;;;5074626;28;20445;-83
2023/10/26 04:50:47;;;;;;;0.40;0.40;;;9.50;99.90;;;;;;5074231;28;20476;-83
2023/10/26 04:53:14;;;;;;;0.40;0.40;;;9.50;99.90;;;;;;5074452;28;20469;-83
2023/10/26 04:55:41;;;;;;;2.30;0.47;;;9.50;99.90;;;;;;5074229;28;20441;-83
2023/10/26 04:58:08;;;;;;;0.50;0.30;;;9.50;99.90;;;;;;5074397;28;20452;-83
2023/10/26 05:00:37;;;;;;;0.30;0.30;;;9.50;99.90;;;;;;5074255;28;20568;-83
2023/10/26 05:03:04;;;;;;;0.77;0.40;;;9.60;99.90;;;;;;5073918;28;20973;-83
2023/10/26 05:05:32;;;;;;;0.57;0.30;;;9.50;99.90;;;;;;5074242;28;20441;-83
2023/10/26 05:07:59;;;;;;;0.30;0.30;;;9.50;99.90;;;;;;5073889;28;20436;-83
2023/10/26 05:10:27;;;;;;;0.80;0.37;;;9.60;99.90;;;;;;5074149;28;20453;-83
2023/10/26 05:12:54;;;;;;;0.40;0.30;;;9.60;99.90;;;;;;5074003;28;20509;-84
2023/10/26 05:15:21;;;;;;;0.40;0.40;;;9.60;99.90;;;;;;5073819;28;20433;-83
2023/10/26 05:17:47;;;;;;;1.07;0.40;;;9.60;99.90;;;;;;5073777;28;20922;-83
2023/10/26 05:20:14;;;;;;;0.30;0.30;;;9.60;99.90;;;;;;5073892;28;20476;-83
2023/10/26 05:22:42;;;;;;;4.40;0.87;;;9.60;99.90;;;;;;5073828;28;20452;-83
2023/10/26 05:25:11;;;;;;;0.30;0.30;;;9.60;99.90;;;;;;5073905;28;20441;-83
2023/10/26 05:27:38;;;;;;;0.60;0.40;;;9.60;99.90;;;;;;5073837;28;20449;-83
2023/10/26 05:30:06;;;;;;;0.40;0.40;;;9.70;99.90;;;;;;5073798;28;20502;-83
2023/10/26 05:32:33;;;;;;;0.40;0.40;;;9.70;99.90;;;;;;5073768;28;20448;-83
2023/10/26 05:35:00;;;;;;;0.40;0.40;;;9.70;99.90;;;;;;5073656;28;20461;-83
2023/10/26 05:37:27;;;;;;;0.50;0.30;;;9.70;99.90;;;;;;5073682;28;20448;-83
2023/10/26 05:39:55;;;;;;;0.40;0.30;;;9.70;99.90;;;;;;5073628;28;20442;-83
2023/10/26 05:42:22;;;;;;;0.50;0.40;;;9.80;99.90;;;;;;5073625;28;20440;-83
2023/10/26 05:44:48;;;;;;;0.30;0.30;;;9.80;99.90;;;;;;5073504;28;20462;-84
2023/10/26 05:47:16;;;;;;;0.30;0.30;;;9.80;99.90;;;;;;5073611;28;20441;-83
2023/10/26 05:49:43;;;;;;;0.37;0.30;;;10.40;99.90;;;;;;5074046;28;20449;-84
2023/10/26 05:52:10;;;;;;;1.33;0.50;;;9.90;99.90;;;;;;5073712;28;20464;-83
2023/10/26 05:54:36;;;;;;;0.83;0.50;;;9.80;99.90;;;;;;5073661;28;20457;-84
2023/10/26 05:57:05;;;;;;;3.27;0.50;;;9.70;99.90;;;;;;5073543;28;20467;-84
2023/10/26 05:59:32;;;;;;;0.30;0.30;;;9.80;99.90;;;;;;5073453;28;20443;-84
2023/10/26 06:01:59;;;;;;;0.30;0.30;;;9.80;99.90;;;;;;5073006;28;20867;-83
2023/10/26 06:04:25;;;;;;;0.40;0.40;;;9.80;99.90;;;;;;5072999;28;20479;-84
2023/10/26 06:06:52;;;;;;;0.30;0.30;;;9.80;99.90;;;;;;5072788;28;20443;-84
2023/10/26 06:09:19;;;;;;;0.40;0.40;;;9.70;99.90;;;;;;5073325;28;20449;-83
2023/10/26 06:11:46;;;;;;;0.30;0.30;;;9.80;99.90;;;;;;5073271;28;20532;-83
2023/10/26 06:14:14;;;;;;;0.30;0.30;;;9.80;99.90;;;;;;5073210;28;20487;-83
2023/10/26 06:16:41;;;;;;;0.40;0.30;;;9.80;99.90;;;;;;5073281;28;20472;-83
2023/10/26 06:19:07;;;;;;;0.40;0.30;;;9.80;99.90;;;;;;5073265;28;20818;-83
2023/10/26 06:21:34;;;;;;;0.50;0.50;;;9.80;99.90;;;;;;5073350;28;20484;-83
2023/10/26 06:24:01;;;;;;;0.40;0.40;;;9.80;99.90;;;;;;5073465;28;20464;-83
2023/10/26 06:26:28;;;;;;;0.87;0.57;;;9.90;99.90;;;;;;5072819;28;20448;-83
2023/10/26 06:28:55;;;;;;;0.40;0.40;;;9.90;99.90;;;;;;5072940;28;20444;-84
2023/10/26 06:31:23;;;;;;;0.50;0.50;;;9.90;99.90;;;;;;5073113;28;20452;-83
2023/10/26 06:33:50;;;;;;;0.40;0.40;;;9.90;99.90;;;;;;5072838;28;20984;-83
2023/10/26 06:36:17;;;;;;;0.40;0.40;;;10.00;99.90;;;;;;5073355;28;20449;-83
2023/10/26 06:38:43;;;;;;;0.80;0.40;;;9.90;99.90;;;;;;5073052;28;20440;-83
2023/10/26 06:41:11;;;;;;;0.47;0.47;;;10.00;99.90;;;;;;5072699;28;20484;-84
2023/10/26 06:43:37;;;;;;;0.30;0.30;;;10.00;99.90;;;;;;5072642;28;20478;-83
2023/10/26 06:46:05;;;;;;;0.80;0.80;;;10.00;99.90;;;;;;5072992;28;20823;-84
2023/10/26 06:48:33;;;;;;;0.80;0.40;;;10.00;99.90;;;;;;5072596;28;20795;-84
2023/10/26 06:51:02;;;;;;;0.40;0.40;;;10.00;99.90;;;;;;5072575;28;20472;-83
2023/10/26 06:53:29;;;;;;;0.50;0.50;;;10.10;99.90;;;;;;5072854;28;20468;-83
2023/10/26 06:55:56;;;;;;;0.40;0.40;;;10.10;99.90;;;;;;5072953;28;20455;-83
2023/10/26 06:58:23;;;;;;;0.33;0.33;;;10.10;99.90;;;;;;5072638;28;20452;-83
2023/10/26 07:00:50;;;;;;;1.37;0.67;;;10.10;99.90;;;;;;5072483;28;20484;-83
2023/10/26 07:03:17;;;;;;;0.77;0.73;;;10.10;99.90;;;;;;5072730;28;20471;-83
2023/10/26 07:05:47;;;;;;;0.30;0.30;;;10.20;99.90;;;;;;5072789;28;20449;-83
2023/10/26 07:08:14;;;;;;;0.40;0.37;;;10.10;99.90;;;;;;5072831;28;20437;-83
2023/10/26 07:10:41;;;;;;;1.43;0.40;;;10.20;99.90;;;;;;5072770;28;20441;-83
2023/10/26 07:13:09;;;;;;;0.50;0.40;;;10.20;99.90;;;;;;5072734;28;20469;-83
2023/10/26 07:15:36;;;;;;;0.50;0.40;;;10.20;99.90;;;;;;5072717;28;20815;-83
2023/10/26 07:18:04;;;;;;;0.40;0.40;;;10.30;99.90;;;;;;5073157;28;20453;-83
2023/10/26 07:20:31;;;;;;;0.40;0.40;;;10.20;99.90;;;;;;5076155;28;20440;-83
2023/10/26 07:22:59;;;;;;;0.40;0.40;;;10.20;99.90;;;;;;5076150;28;20456;-83
2023/10/26 07:25:25;;;;;;;0.80;0.50;;;10.20;99.90;;;;;;5076200;28;20523;-83
2023/10/26 07:27:52;;;;;;;2.00;0.50;;;10.20;99.90;;;;;;5075928;28;20987;-83
2023/10/26 07:30:19;;;;;;;0.30;0.30;;;10.20;99.90;;;;;;5076306;28;20574;-83
2023/10/26 07:32:46;;;;;;;0.50;0.50;;;10.20;99.90;;;;;;5075958;28;20448;-83
2023/10/26 07:35:14;;;;;;;0.40;0.37;;;10.30;99.90;;;;;;5075764;28;20445;-83
2023/10/26 07:37:41;;;;;;;0.40;0.30;;;10.20;99.90;;;;;;5075999;28;20441;-83
2023/10/26 07:40:10;;;;;;;0.47;0.47;;;10.30;99.90;;;;;;5076489;28;20445;-83
2023/10/26 07:42:37;;;;;;;0.30;0.30;;;10.30;99.90;;;;;;5075746;28;20484;-83
2023/10/26 07:45:06;;;;;;;6.33;0.50;;;10.40;99.90;;;;;;5075816;28;20466;-84
2023/10/26 07:47:33;;;;;;;0.40;0.30;;;10.40;99.90;;;;;;5075796;28;20441;-84
2023/10/26 07:49:59;;;;;;;0.40;0.40;;;10.40;99.90;;;;;;5075521;28;20441;-83
2023/10/26 07:52:26;;;;;;;0.40;0.30;;;10.50;99.90;;;;;;5075739;28;20435;-83
2023/10/26 07:54:53;;;;;;;0.73;0.73;;;10.60;99.90;;;;;;5075561;28;20465;-83
2023/10/26 07:57:21;;;;;;;0.43;0.40;;;10.50;99.90;;;;;;5075633;28;20448;-84
2023/10/26 07:59:48;;;;;;;0.40;0.40;;;10.60;99.90;;;;;;5075538;28;20450;-83
2023/10/26 08:02:15;;;;;;;0.40;0.30;;;10.60;99.90;;;;;;5075455;28;20847;-84
2023/10/26 08:04:41;;;;;;;0.70;0.47;;;10.60;99.90;;;;;;5075089;28;21019;-83
2023/10/26 08:07:08;;;;;;;0.40;0.40;;;10.70;99.90;;;;;;5075168;28;20445;-83
2023/10/26 08:09:35;;;;;;;0.30;0.30;;;10.70;99.90;;;;;;5075370;28;20510;-83
2023/10/26 08:12:02;;;;;;;0.30;0.30;;;10.80;99.90;;;;;;5076241;28;20441;-83
2023/10/26 08:14:31;;;;;;;0.50;0.40;;;10.80;99.90;;;;;;5075218;28;20460;-83
2023/10/26 08:16:57;;;;;;;1.00;0.40;;;10.70;99.90;;;;;;5075335;28;20451;-83
2023/10/26 08:19:25;;;;;;;0.30;0.30;;;10.70;99.90;;;;;;5075274;28;20498;-83
2023/10/26 08:21:52;;;;;;;0.53;0.40;;;10.80;99.90;;;;;;5075148;28;20485;-84
2023/10/26 08:24:18;;;;;;;0.40;0.40;;;10.80;99.90;;;;;;5075097;28;20463;-83
2023/10/26 08:26:47;;;;;;;1.90;0.40;;;10.90;99.90;;;;;;5075079;28;20824;-83
2023/10/26 08:29:13;;;;;;;0.30;0.30;;;10.90;99.90;;;;;;5074901;28;20472;-83
2023/10/26 08:31:41;;;;;;;0.30;0.30;;;10.80;99.90;;;;;;5074281;28;20949;-83
2023/10/26 08:34:08;;;;;;;0.80;0.50;;;11.00;99.90;;;;;;5074530;28;21075;-83
2023/10/26 08:36:35;;;;;;;0.40;0.30;;;11.00;99.90;;;;;;5074546;28;20460;-83
2023/10/26 08:39:02;;;;;;;0.40;0.40;;;11.00;99.90;;;;;;5074886;28;20449;-83
2023/10/26 08:41:32;;;;;;;0.40;0.40;;;11.00;99.90;;;;;;5074819;28;20490;-83
2023/10/26 08:44:00;;;;;;;0.73;0.70;;;11.00;99.90;;;;;;5074716;28;20552;-83
2023/10/26 08:46:28;;;;;;;0.50;0.50;;;11.10;99.90;;;;;;5074515;28;20512;-83
2023/10/26 08:48:57;;;;;;;0.50;0.40;;;11.10;99.90;;;;;;5074495;28;20929;-82
2023/10/26 08:51:24;;;;;;;2.40;0.40;;;11.20;99.90;;;;;;5074165;28;20473;-83
2023/10/26 08:53:51;;;;;;;0.40;0.40;;;11.30;99.90;;;;;;5074518;28;20560;-83
2023/10/26 08:56:20;;;;;;;0.40;0.40;;;11.40;99.90;;;;;;5074511;28;20455;-83
2023/10/26 08:58:47;;;;;;;0.40;0.40;;;11.50;99.90;;;;;;5074437;28;20474;-83
2023/10/26 09:01:14;;;;;;;0.40;0.40;;;11.50;99.90;;;;;;5074003;28;20480;-83
2023/10/26 09:03:41;;;;;;;0.40;0.40;;;11.50;99.90;;;;;;5074277;28;20491;-83
2023/10/26 09:06:09;;;;;;;0.50;0.40;;;11.50;99.90;;;;;;5074303;28;20448;-83
2023/10/26 09:08:36;;;;;;;10.53;1.07;;;11.60;99.90;;;;;;5074444;28;20445;-84
2023/10/26 09:11:22;;;;;;;0.40;0.40;;;11.50;99.90;;;;;;5074724;28;20445;-83
2023/10/26 09:13:50;;;;;;;0.40;0.40;;;11.70;99.90;;;;;;5074300;28;20468;-83
2023/10/26 09:16:17;;;;;;;0.40;0.40;;;11.60;99.90;;;;;;5074118;28;20490;-82
2023/10/26 09:18:51;;;;;;;0.37;0.30;;;11.50;99.90;;;;;;5074083;28;20806;-83
2023/10/26 09:21:19;;;;;;;0.40;0.30;;;11.50;99.90;;;;;;5073761;28;20494;-82
2023/10/26 09:23:46;;;;;;;0.80;0.33;;;11.50;99.90;;;;;;5073957;28;20841;-82
2023/10/26 09:26:13;;;;;;;0.40;0.30;;;11.40;99.90;;;;;;5073872;28;20809;-82
2023/10/26 09:28:53;;;;;;;0.40;0.30;;;11.30;99.90;;;;;;5074365;28;21043;-82
2023/10/26 09:31:21;;;;;;;0.47;0.33;;;11.40;99.90;;;;;;5073501;28;20441;-82
2023/10/26 09:33:48;;;;;;;0.53;0.40;;;11.30;99.90;;;;;;5073757;28;20472;-82
2023/10/26 09:36:17;;;;;;;0.60;0.60;;;11.30;99.90;;;;;;5074558;28;20445;-83
2023/10/26 09:38:47;;;;;;;0.30;0.30;;;11.30;99.90;;;;;;5073801;28;20445;-82
2023/10/26 09:41:16;;;;;;;0.40;0.40;;;11.20;99.90;;;;;;5073868;28;20437;-83
2023/10/26 09:43:43;;;;;;;0.40;0.30;;;11.10;99.90;;;;;;5073649;28;20978;-83
2023/10/26 09:46:11;;;;;;;0.83;0.40;;;11.00;99.90;;;;;;5073625;28;20441;-82
2023/10/26 09:48:38;;;;;;;0.30;0.30;;;11.00;99.90;;;;;;5073595;28;20440;-83
2023/10/26 09:51:05;;;;;;;0.33;0.30;;;11.00;99.90;;;;;;5073726;28;20493;-83
2023/10/26 09:53:35;;;;;;;0.57;0.30;;;11.00;99.90;;;;;;5073574;28;20469;-84
2023/10/26 09:56:06;;;;;;;0.60;0.60;;;11.10;99.90;;;;;;5074123;28;20425;-83
2023/10/26 09:58:39;;;;;;;0.40;0.40;;;11.10;99.90;;;;;;5073630;28;20933;-83
2023/10/26 10:01:33;;;;;;;0.40;0.30;;;11.20;99.90;;;;;;5075958;28;20437;-80
2023/10/26 10:04:01;;;;;;;0.50;0.40;;;11.20;99.90;;;;;;5074209;28;20548;-80
2023/10/26 10:06:50;;;;;;;0.40;0.30;;;11.20;99.90;;;;;;5073393;28;20422;-81
2023/10/26 10:09:19;;;;;;;0.47;0.40;;;11.30;99.90;;;;;;5073347;28;20448;-81
2023/10/26 10:12:20;;;;;;;0.30;0.30;;;11.30;99.90;;;;;;5073359;28;20440;-81
2023/10/26 10:14:55;;;;;;;0.30;0.30;;;11.30;99.90;;;;;;5072779;28;20483;-81
2023/10/26 10:17:23;;;;;;;0.40;0.40;;;11.40;99.90;;;;;;5073297;28;20425;-81
2023/10/26 10:20:29;;;;;;;0.63;0.40;;;11.40;99.90;;;;;;5073237;28;20449;-80
2023/10/26 10:22:58;;;;;;;0.33;0.30;;;11.50;99.90;;;;;;5073090;28;20480;-81
2023/10/26 10:25:56;;;;;;;2.03;0.50;;;11.60;99.90;;;;;;5073217;28;20444;-81
2023/10/26 10:28:24;;;;;;;0.40;0.40;;;11.60;99.90;;;;;;5073159;28;20456;-81
2023/10/26 10:30:55;;;;;;;0.70;0.50;;;11.60;99.90;;;;;;5073455;28;20440;-81
2023/10/26 10:33:24;;;;;;;0.40;0.40;;;11.70;99.90;;;;;;5073075;28;20518;-81
2023/10/26 10:36:00;;;;;;;1.43;0.40;;;11.80;99.90;;;;;;5073006;28;20449;-81
2023/10/26 10:38:27;;;;;;;0.40;0.40;;;11.80;99.90;;;;;;5073109;28;20424;-80
2023/10/26 10:41:14;;;;;;;0.40;0.33;;;11.90;99.90;;;;;;5073030;28;20447;-81
2023/10/26 10:43:47;;;;;;;0.40;0.40;;;12.00;99.90;;;;;;5072879;28;20492;-80
2023/10/26 10:46:20;;;;;;;0.40;0.30;;;12.10;99.90;;;;;;5072743;28;20906;-80
2023/10/26 10:49:01;;;;;;;0.73;0.60;;;12.10;99.90;;;;;;5073513;28;20449;-80
2023/10/26 10:51:29;;;;;;;0.60;0.40;;;12.10;99.90;;;;;;5072455;28;20997;-80
2023/10/26 10:53:56;;;;;;;0.30;0.30;;;12.10;99.90;;;;;;5075113;28;20468;-80
2023/10/26 10:56:24;;;;;;;0.50;0.40;;;12.20;99.90;;;;;;5076757;28;20536;-79
2023/10/26 10:58:53;;;;;;;0.40;0.30;;;12.10;99.90;;;;;;5076695;28;20444;-79
2023/10/26 11:01:20;;;;;;;0.40;0.40;;;12.20;99.90;;;;;;5076360;28;20535;-79
2023/10/26 11:03:47;;;;;;;0.50;0.40;;;12.20;99.90;;;;;;5076504;28;20518;-79
2023/10/26 11:06:15;;;;;;;0.30;0.30;;;12.20;99.90;;;;;;5076345;28;20932;-79
2023/10/26 11:08:42;;;;;;;0.40;0.40;;;12.20;99.90;;;;;;5079045;28;20441;-79
2023/10/26 11:11:09;;;;;;;0.40;0.40;;;12.20;99.90;;;;;;5076479;28;20456;-79
2023/10/26 11:13:36;;;;;;;1.37;0.50;;;12.20;99.90;;;;;;5076079;28;20844;-79
2023/10/26 11:16:15;;;;;;;0.50;0.40;;;12.30;99.90;;;;;;5076418;28;20448;-77
2023/10/26 11:18:42;;;;;;;0.33;0.33;;;12.30;99.90;;;;;;5076518;28;20424;-81
2023/10/26 11:21:16;;;;;;;0.70;0.60;;;12.30;99.90;;;;;;5076321;28;20432;-81
2023/10/26 11:23:50;;;;;;;0.33;0.33;;;12.40;99.90;;;;;;5076407;28;20488;-81
2023/10/26 11:26:17;;;;;;;1.30;0.50;;;12.40;99.90;;;;;;5076231;28;20433;-81
2023/10/26 11:28:43;;;;;;;0.90;0.40;;;12.50;99.90;;;;;;5076171;28;20443;-82
2023/10/26 11:31:12;;;;;;;0.80;0.40;;;12.60;99.90;;;;;;5076135;28;20449;-81
2023/10/26 11:33:40;;;;;;;0.93;0.50;;;12.60;99.90;;;;;;5076032;28;20902;-82
2023/10/26 11:36:10;;;;;;;1.20;0.77;;;12.60;99.90;;;;;;5076020;28;20483;-82
2023/10/26 11:38:45;;;;;;;0.50;0.50;;;12.60;99.90;;;;;;5075702;28;20441;-82
2023/10/26 11:41:19;;;;;;;0.97;0.70;;;12.60;99.90;;;;;;5075964;28;20432;-82
2023/10/26 11:43:46;;;;;;;0.70;0.50;;;12.70;99.90;;;;;;5076122;28;20492;-82
2023/10/26 11:46:14;;;;;;;0.70;0.67;;;12.80;99.90;;;;;;5075574;28;20957;-82
2023/10/26 11:48:41;;;;;;;0.50;0.50;;;12.90;99.90;;;;;;5075491;28;20972;-82
2023/10/26 11:51:08;;;;;;;0.50;0.50;;;12.90;99.90;;;;;;5075249;28;20517;-82
2023/10/26 11:53:38;;;;;;;0.70;0.70;;;13.00;99.90;;;;;;5075624;28;20452;-82
2023/10/26 11:56:05;;;;;;;1.30;0.60;;;13.10;99.90;;;;;;5075738;28;20434;-82
2023/10/26 11:58:33;;;;;;;0.60;0.50;;;13.10;99.90;;;;;;5075675;28;20437;-85
2023/10/26 12:00:59;;;;;;;0.50;0.50;;;13.10;99.90;;;;;;5075311;28;20433;-82
2023/10/26 12:03:28;;;;;;;0.50;0.50;;;13.20;99.90;;;;;;5075127;28;20492;-82
2023/10/26 12:05:54;;;;;;;0.50;0.50;;;13.20;99.90;;;;;;5074554;28;20565;-82
2023/10/26 12:08:21;;;;;;;0.40;0.40;;;13.30;99.90;;;;;;5075479;28;20440;-83
2023/10/26 12:10:48;;;;;;;0.50;0.50;;;13.50;99.90;;;;;;5075091;28;20445;-83
2023/10/26 12:13:15;;;;;;;4.17;0.60;;;13.60;99.90;;;;;;5075293;28;20469;-83
2023/10/26 12:15:41;;;;;;;0.40;0.30;;;13.60;99.90;;;;;;5075286;28;20453;-83
2023/10/26 12:18:08;;;;;;;3.80;0.53;;;13.70;99.90;;;;;;5075268;28;20449;-84
2023/10/26 12:20:36;;;;;;;0.80;0.60;;;13.60;99.90;;;;;;5075225;28;20517;-83
2023/10/26 12:23:03;;;;;;;1.30;0.50;;;13.50;99.90;;;;;;5075081;28;20485;-83
2023/10/26 12:25:30;;;;;;;0.70;0.50;;;13.50;99.90;;;;;;5075197;28;20433;-83
2023/10/26 12:28:00;;;;;;;1.90;0.40;;;13.50;99.90;;;;;;5075106;28;20437;-83
2023/10/26 12:30:26;;;;;;;1.23;0.93;;;13.50;99.90;;;;;;5075067;28;20855;-83
2023/10/26 12:32:53;;;;;;;3.80;0.60;;;13.60;99.90;;;;;;5074949;28;20418;-83
2023/10/26 12:35:21;;;;;;;0.80;0.60;;;13.60;99.90;;;;;;5074890;28;20445;-83
2023/10/26 12:37:49;;;;;;;0.40;0.30;;;13.70;99.90;;;;;;5074900;28;20490;-83
2023/10/26 12:40:18;;;;;;;3.23;0.30;;;13.70;99.90;;;;;;5074828;28;20443;-83
2023/10/26 12:42:44;;;;;;;1.17;0.83;;;13.70;99.90;;;;;;5074662;28;20531;-83
2023/10/26 12:45:11;;;;;;;4.83;0.90;;;13.70;99.90;;;;;;5074427;28;20502;-83
2023/10/26 12:47:38;;;;;;;0.40;0.40;;;13.80;99.90;;;;;;5074658;28;20452;-83
2023/10/26 12:50:05;;;;;;;4.63;0.60;;;13.80;99.90;;;;;;5074402;28;20467;-83
2023/10/26 12:52:32;;;;;;;0.60;0.40;;;13.90;99.90;;;;;;5074599;28;20425;-83
2023/10/26 12:55:00;;;;;;;0.43;0.40;;;13.90;99.90;;;;;;5074508;28;20461;-83